Forside
METAR-TAF:

METAR-TAF

Lufthavne :

Rzeszów, Polen

Breddekreds: 50-06N, længdekreds: 022-03E, højde: 200 m

Aktuelle vejr

Denne rapport blev lavet for 39 minutter siden, kl. 08:30 UTC
Vind 9 kt fra øst
Temperatur 23°C
Fugtighed 53%
Tryk 1021 hPa
Sigt 10 km eller mere
Nogle få skyer i en højde af 3300 ft

METAR: EPRZ 260830Z 09009KT 9999 FEW033 23/13 Q1021

Tid: 11:09 (09:09 UTC)

Vejrudsigter

Denne rapport blev lavet for 3 timer og 39 minutter siden, kl. 05:30 UTC
Foreløbig gælder fra 26 på 06 UTC til 27 på 06 UTC
Vind 6 kt fra østsydøst
Sigt 10 km eller mere
ingen skyer under 1500m og ingen cumulonimbus

TAF: EPRZ 260530Z 2606/2706 11006KT CAVOK

Vejrobservationer og prognoser fra mere end 4000 lufthavne (METAR og TAF).

De gule og røde prikker repræsenterer de meteorologiske stationer.

Flyt musen over at se navnet på stationen.

Så klik over at se vejr observationer og prognoser.

At skifte det kort: Klik på de grønne knapper med et sort kors for at zoome ind; på den grønne knap med en bindestreg for at zoome ud; eller på de grønne pile for tilstødende kort.


METAR-TAF: